首页
METAR-TAF:

METAR-TAF

机场 :

上海浦东国际机场

上海 / 浦东, 中华人民共和国

纬度: 31-07N, 经度: 121-46E, 海拔: 4米

当前天气观测

该预报发布于31分钟前的15:00 UTC
风速23节,风向东北,有时为39节阵风
温度 27°C
湿度 94%
气压 992 hPa
能見度: 8000
多云层高于1000英尺
小阵雨

METAR: ZSPD 161500Z 05012G20MPS 8000 -SHRA BKN010 27/26 Q0992 RESHRA BECMG TL1530 SHRA BKN009

时间: 23:31 (15:31 UTC)

预报

该预报发布于5小时和58分钟前的09:33 UTC
预报有效从16日的 12点(UTC)到 17日的 12点(UTC)
风速27节,风向北转东北,有时为37节阵风
能見度: 6000
多云层高于1000英尺
小阵雨
成为
从 16日的 15点(UTC)到 16日的 16点(UTC)
风速31节,风向,有时为43节阵风
多云层高于700英尺
少量云层高于3000英尺, 积雨云.
阵雨
成为
从 17日的 00点(UTC)到 17日的 02点(UTC)
风速21节,风向东南,有时为31节阵风
多云层高于1000英尺
小阵雨

TAF: ZSPD 160933Z 1612/1712 02014G19MPS 6000 -SHRA BKN010 TX30/1706Z TN25/1621Z BECMG 1615/1616 08016G22MPS SHRA BKN007 FEW030CB BECMG 1700/1702 14011G16MPS -SHRA BKN010

超过4000个机场的气象观测和天气预报(METAR&TAF报告)。

可查询的气象台以黄色和红色小点在地图上表示。

将鼠标移到小点上方,可查看气象台名称。

然后点击查看天气观测和预报。

如需切换地图:点击带黑十字的绿色按钮放大地图;点击带横线的绿色按钮缩小地图;或者点击绿色箭头查看邻近地区的地图。


METAR-TAF: